Time;durP1;ratioP1;P1;durP2;ratioP2;P2;SDS_P1;SDS_P2;PMS_P1;PMS_P2;Temp;Humidity;BMP_temperature;BMP_pressure;BME280_temperature;BME280_humidity;BME280_pressure;Samples;Min_cycle;Max_cycle;Signal;HPM_P1;HPM_P2
2023/04/22 00:01:06;;;;;;;11.70;1.50;;;;;;;7.93;100.00;98925.71;109178;1254;72817;-48
2023/04/22 00:03:34;;;;;;;9.40;1.40;;;;;;;7.88;100.00;98925.96;109162;1253;61963;-49
2023/04/22 00:06:02;;;;;;;5.40;1.50;;;;;;;7.84;100.00;98928.83;109172;1253;59489;-48
2023/04/22 00:08:30;;;;;;;9.10;1.60;;;;;;;7.80;100.00;98922.42;108827;1253;72774;-47
2023/04/22 00:10:58;;;;;;;13.60;2.00;;;;;;;7.79;100.00;98922.70;109063;1254;66278;-52
2023/04/22 00:13:27;;;;;;;6.40;1.60;;;;;;;7.77;100.00;98924.55;109084;1253;71698;-51
2023/04/22 00:15:54;;;;;;;11.40;2.10;;;;;;;7.76;100.00;98925.70;107748;1253;60636;-48
2023/04/22 00:18:23;;;;;;;7.70;1.20;;;;;;;7.75;100.00;98925.39;105345;1253;60627;-50
2023/04/22 00:20:51;;;;;;;7.30;1.60;;;;;;;7.73;100.00;98921.55;109064;1252;73743;-51
2023/04/22 00:23:19;;;;;;;9.20;2.20;;;;;;;7.70;100.00;98918.48;106071;1254;66880;-48
2023/04/22 00:25:47;;;;;;;8.10;1.40;;;;;;;7.70;100.00;98918.69;105877;1256;72620;-46
2023/04/22 00:28:15;;;;;;;10.80;1.70;;;;;;;7.68;100.00;98916.82;105442;1256;62338;-48
2023/04/22 00:30:43;;;;;;;8.60;1.70;;;;;;;7.66;100.00;98922.09;107337;1254;60347;-52
2023/04/22 00:33:11;;;;;;;8.70;1.60;;;;;;;7.62;100.00;98924.79;105503;1254;73173;-50
2023/04/22 00:35:39;;;;;;;6.30;1.80;;;;;;;7.57;100.00;98925.19;105252;1259;67064;-50
2023/04/22 00:38:07;;;;;;;9.90;2.20;;;;;;;7.51;100.00;98927.63;105665;1254;71275;-50
2023/04/22 00:40:35;;;;;;;11.30;2.50;;;;;;;7.44;100.00;98928.69;105790;1254;60403;-47
2023/04/22 00:43:03;;;;;;;8.60;1.80;;;;;;;7.39;100.00;98933.26;105449;1257;61662;-50
2023/04/22 00:45:31;;;;;;;9.50;2.70;;;;;;;7.34;100.00;98933.27;105343;1254;72597;-50
2023/04/22 00:47:59;;;;;;;12.70;2.90;;;;;;;7.31;100.00;98933.64;105256;1254;67722;-49
2023/04/22 00:50:28;;;;;;;8.20;2.40;;;;;;;7.28;100.00;98932.89;105264;1254;71819;-50
2023/04/22 00:52:56;;;;;;;13.30;2.40;;;;;;;7.25;100.00;98933.20;105450;1257;60900;-48
2023/04/22 00:55:24;;;;;;;6.30;1.80;;;;;;;7.25;100.00;98933.74;106643;1254;61533;-51
2023/04/22 00:57:53;;;;;;;7.50;2.10;;;;;;;7.23;100.00;98930.57;105455;1256;73914;-46
2023/04/22 01:00:25;;;;;;;7.50;1.60;;;;;;;7.21;100.00;98930.73;105456;1254;67224;-50
2023/04/22 01:02:54;;;;;;;6.50;2.20;;;;;;;7.18;100.00;98930.69;105458;1256;70531;-48
2023/04/22 01:05:23;;;;;;;11.90;2.60;;;;;;;7.17;100.00;98925.91;106335;1256;62084;-49
2023/04/22 01:07:51;;;;;;;5.60;1.50;;;;;;;7.16;100.00;98932.53;105815;1254;60535;-52
2023/04/22 01:10:19;;;;;;;8.80;2.60;;;;;;;7.15;100.00;98936.84;105968;1255;75111;-50
2023/04/22 01:12:47;;;;;;;5.80;2.10;;;;;;;7.14;100.00;98937.48;105938;1254;67351;-48
2023/04/22 01:15:15;;;;;;;5.60;2.20;;;;;;;7.12;100.00;98934.19;105578;1254;73479;-48
2023/04/22 01:17:44;;;;;;;12.70;2.40;;;;;;;7.10;100.00;98941.22;105344;1254;62214;-49
2023/04/22 01:20:12;;;;;;;7.00;1.50;;;;;;;7.09;100.00;98942.55;105924;1254;59736;-47
2023/04/22 01:22:41;;;;;;;8.80;1.60;;;;;;;7.05;100.00;98941.31;105503;1256;74098;-48
2023/04/22 01:25:10;;;;;;;6.90;1.50;;;;;;;7.01;100.00;98941.11;105538;1254;67393;-50
2023/04/22 01:27:39;;;;;;;8.50;1.80;;;;;;;6.98;100.00;98937.31;105632;1254;70804;-48
2023/04/22 01:30:08;;;;;;;4.50;1.90;;;;;;;6.98;100.00;98939.30;105945;1253;60415;-50
2023/04/22 01:32:36;;;;;;;5.90;2.50;;;;;;;6.97;100.00;98937.75;106202;1254;60409;-47
2023/04/22 01:35:04;;;;;;;6.80;2.10;;;;;;;6.95;100.00;98937.14;105750;1254;72369;-48
2023/04/22 01:37:33;;;;;;;4.70;2.00;;;;;;;6.92;100.00;98940.13;105391;1253;67519;-50
2023/04/22 01:40:03;;;;;;;6.60;1.90;;;;;;;6.88;100.00;98936.92;105764;1254;71901;-50
2023/04/22 01:42:31;;;;;;;5.00;2.10;;;;;;;6.83;100.00;98941.74;105986;1253;60449;-50
2023/04/22 01:44:59;;;;;;;5.00;2.20;;;;;;;6.79;100.00;98941.23;105376;1256;60691;-44
2023/04/22 01:47:27;;;;;;;6.00;2.60;;;;;;;6.75;100.00;98940.89;105327;1259;72894;-48
2023/04/22 01:49:55;;;;;;;5.90;2.30;;;;;;;6.69;100.00;98942.05;105337;1259;67694;-48
2023/04/22 01:52:25;;;;;;;7.80;2.00;;;;;;;6.63;100.00;98943.93;105997;1262;72112;-48
2023/04/22 01:54:54;;;;;;;6.10;3.20;;;;;;;6.59;100.00;98945.21;105320;1262;63023;-47
2023/04/22 01:57:22;;;;;;;9.40;1.80;;;;;;;6.55;100.00;98948.05;105966;1254;60841;-48
2023/04/22 01:59:50;;;;;;;5.20;1.80;;;;;;;6.53;100.00;98952.27;105348;1259;73122;-48
2023/04/22 02:02:18;;;;;;;4.60;1.70;;;;;;;6.49;100.00;98949.21;105506;1254;67525;-51
2023/04/22 02:04:46;;;;;;;4.60;1.80;;;;;;;6.45;100.00;98954.58;105416;1254;71863;-47
2023/04/22 02:07:14;;;;;;;4.50;2.20;;;;;;;6.41;100.00;98956.70;105353;1259;62713;-50
2023/04/22 02:09:42;;;;;;;2.50;1.30;;;;;;;6.36;100.00;98959.05;105703;1254;60541;-45
2023/04/22 02:12:10;;;;;;;5.00;1.70;;;;;;;6.31;100.00;98957.10;105387;1254;74239;-47
2023/04/22 02:14:40;;;;;;;5.50;2.00;;;;;;;6.27;100.00;98959.63;105575;1256;67314;-47
2023/04/22 02:17:08;;;;;;;3.50;1.70;;;;;;;6.23;100.00;98959.06;105384;1254;71744;-45
2023/04/22 02:19:36;;;;;;;5.80;1.60;;;;;;;6.21;100.00;98961.31;105561;1254;60604;-45
2023/04/22 02:22:05;;;;;;;6.00;2.00;;;;;;;6.16;100.00;98961.70;106604;1254;60581;-47
2023/04/22 02:24:33;;;;;;;4.10;3.00;;;;;;;6.12;100.00;98959.73;107344;1256;74333;-47
2023/04/22 02:27:01;;;;;;;8.80;3.00;;;;;;;6.08;100.00;98959.55;105569;1253;67132;-51
2023/04/22 02:29:31;;;;;;;6.50;2.40;;;;;;;6.03;100.00;98959.59;105321;1256;72121;-46
2023/04/22 02:31:59;;;;;;;5.80;2.30;;;;;;;5.97;100.00;98963.23;105405;1259;60936;-48
2023/04/22 02:34:27;;;;;;;3.70;1.80;;;;;;;5.91;100.00;98961.34;108876;1253;60482;-49
2023/04/22 02:36:55;;;;;;;8.10;2.50;;;;;;;5.85;100.00;98960.15;108753;1254;72991;-48
2023/04/22 02:39:24;;;;;;;7.60;2.70;;;;;;;5.81;100.00;98961.02;109017;1254;66069;-49
2023/04/22 02:41:52;;;;;;;4.00;2.00;;;;;;;5.78;100.00;98962.56;108815;1253;70471;-51
2023/04/22 02:44:19;;;;;;;2.90;2.10;;;;;;;5.76;100.00;98960.38;108904;1254;59544;-49
2023/04/22 02:46:47;;;;;;;5.50;1.80;;;;;;;5.74;100.00;98960.26;109042;1253;59850;-52
2023/04/22 02:49:16;;;;;;;3.80;2.30;;;;;;;5.72;100.00;98959.25;108893;1254;73460;-48
2023/04/22 02:51:43;;;;;;;4.80;1.90;;;;;;;5.70;100.00;98957.70;109058;1256;66750;-48
2023/04/22 02:54:11;;;;;;;6.80;3.20;;;;;;;5.70;100.00;98961.61;109078;1254;73079;-49
2023/04/22 02:56:39;;;;;;;3.30;1.50;;;;;;;5.71;100.00;98964.25;108990;1253;60533;-50
2023/04/22 02:59:07;;;;;;;5.60;2.10;;;;;;;5.73;100.00;98964.20;109112;1253;60257;-50
2023/04/22 03:01:35;;;;;;;5.70;2.20;;;;;;;5.75;100.00;98963.60;109020;1253;74840;-50
2023/04/22 03:04:04;;;;;;;3.70;2.30;;;;;;;5.77;100.00;98965.81;108931;1256;66875;-48
2023/04/22 03:06:32;;;;;;;4.30;1.60;;;;;;;5.79;100.00;98971.95;109018;1253;72012;-47
2023/04/22 03:09:00;;;;;;;3.10;1.70;;;;;;;5.82;100.00;98975.05;109021;1253;59791;-50
2023/04/22 03:11:28;;;;;;;4.90;1.70;;;;;;;5.83;100.00;98974.28;109211;1253;59420;-46
2023/04/22 03:13:56;;;;;;;4.40;2.30;;;;;;;5.84;100.00;98973.58;109268;1253;72924;-47
2023/04/22 03:16:24;;;;;;;7.00;2.40;;;;;;;5.85;100.00;98977.44;108992;1252;67424;-47
2023/04/22 03:18:53;;;;;;;5.20;3.00;;;;;;;5.85;100.00;98979.38;106168;1259;72332;-47
2023/04/22 03:21:21;;;;;;;4.30;2.30;;;;;;;5.84;100.00;98984.04;105516;1260;62851;-48
2023/04/22 03:23:50;;;;;;;7.40;2.30;;;;;;;5.85;100.00;98982.42;107904;1254;60339;-47
2023/04/22 03:26:19;;;;;;;5.60;2.40;;;;;;;5.87;100.00;98985.72;105416;1254;72942;-49
2023/04/22 03:28:46;;;;;;;12.80;2.70;;;;;;;5.88;100.00;98989.79;106066;1255;68269;-47
2023/04/22 03:31:15;;;;;;;5.10;2.70;;;;;;;5.90;100.00;98988.10;105607;1254;73737;-50
2023/04/22 03:33:43;;;;;;;4.70;2.10;;;;;;;5.94;100.00;98991.30;106128;1259;61529;-51
2023/04/22 03:36:18;;;;;;;8.30;1.60;;;;;;;6.00;100.00;98996.05;105412;1256;59695;-50
2023/04/22 03:38:46;;;;;;;3.80;2.00;;;;;;;6.05;100.00;98996.16;108013;1259;74131;-48
2023/04/22 03:41:15;;;;;;;5.60;1.90;;;;;;;6.12;100.00;98994.32;105470;1259;68110;-48
2023/04/22 03:43:46;;;;;;;3.80;1.60;;;;;;;6.18;100.00;98995.84;105272;1260;72249;-50
2023/04/22 03:46:14;;;;;;;4.20;1.70;;;;;;;6.26;100.00;98995.84;105236;1255;62147;-46
2023/04/22 03:48:49;;;;;;;3.60;1.70;;;;;;;6.35;100.00;98995.77;105605;1254;61306;-49
2023/04/22 03:51:24;;;;;;;3.50;1.60;;;;;;;6.45;100.00;98999.11;105351;1259;73929;-47
2023/04/22 03:53:52;;;;;;;5.30;1.60;;;;;;;6.54;100.00;98999.97;105414;1256;68080;-49
2023/04/22 03:56:23;;;;;;;4.00;1.40;;;;;;;6.65;100.00;99002.70;105372;1257;73241;-50
2023/04/22 03:58:52;;;;;;;8.60;1.70;;;;;;;6.77;100.00;99006.05;105356;1256;60521;-49
2023/04/22 04:01:22;;;;;;;3.90;1.20;;;;;;;6.91;100.00;99007.75;105998;1259;60505;-51
2023/04/22 04:03:51;;;;;;;3.80;1.30;;;;;;;7.07;100.00;99011.83;104964;1254;73778;-49
2023/04/22 04:06:19;;;;;;;3.50;1.30;;;;;;;7.30;100.00;99010.23;105517;1254;67676;-49
2023/04/22 04:08:47;;;;;;;2.60;1.40;;;;;;;7.48;100.00;99012.77;105031;1260;72193;-50
2023/04/22 04:11:15;;;;;;;2.70;1.50;;;;;;;7.58;100.00;99011.39;105766;1259;60501;-50
2023/04/22 04:13:43;;;;;;;3.20;1.60;;;;;;;7.65;100.00;99013.76;107284;1257;60267;-49
2023/04/22 04:16:17;;;;;;;2.60;1.60;;;;;;;7.70;100.00;99013.85;105840;1254;72767;-50
2023/04/22 04:18:51;;;;;;;3.20;1.30;;;;;;;7.81;100.00;99016.16;105319;1255;67357;-48
2023/04/22 04:21:19;;;;;;;2.80;1.10;;;;;;;7.89;100.00;99013.27;105727;1260;71738;-49
2023/04/22 04:23:50;;;;;;;2.90;1.70;;;;;;;7.95;100.00;99010.84;104913;1260;60584;-50
2023/04/22 04:26:20;;;;;;;5.50;1.30;;;;;;;8.03;100.00;99012.78;104643;1254;60227;-48
2023/04/22 04:28:51;;;;;;;2.70;1.20;;;;;;;8.08;100.00;99016.81;105107;1254;72818;-48
2023/04/22 04:31:20;;;;;;;5.50;1.40;;;;;;;8.08;100.00;99019.46;105046;1260;69929;-50
2023/04/22 04:33:48;;;;;;;2.90;1.40;;;;;;;8.10;100.00;99020.27;106933;1259;71272;-50
2023/04/22 04:36:16;;;;;;;2.70;1.20;;;;;;;8.13;100.00;99022.25;105130;1260;61348;-50
2023/04/22 04:38:44;;;;;;;4.10;1.10;;;;;;;8.19;100.00;99023.05;105411;1257;62042;-51
2023/04/22 04:41:13;;;;;;;2.90;1.20;;;;;;;8.33;100.00;99024.84;104560;1259;72825;-50
2023/04/22 04:43:45;;;;;;;5.00;1.30;;;;;;;8.44;100.00;99025.38;105443;1257;67074;-49
2023/04/22 04:46:22;;;;;;;2.70;1.30;;;;;;;8.51;100.00;99027.36;105393;1260;72646;-54
2023/04/22 04:48:52;;;;;;;6.60;1.70;;;;;;;8.52;100.00;99025.65;104742;1263;60543;-50
2023/04/22 04:51:21;;;;;;;1.80;1.10;;;;;;;8.53;100.00;99033.86;106462;1256;60414;-51
2023/04/22 04:53:52;;;;;;;1.70;1.00;;;;;;;8.53;100.00;99035.45;104932;1254;71814;-49
2023/04/22 04:56:20;;;;;;;2.40;1.50;;;;;;;8.54;100.00;99033.27;105018;1260;69115;-51
2023/04/22 04:58:48;;;;;;;2.00;1.70;;;;;;;8.55;100.00;99032.33;106185;1260;73882;-47
2023/04/22 05:01:19;;;;;;;5.70;1.40;;;;;;;8.57;100.00;99028.80;105304;1260;60941;-49
2023/04/22 05:03:47;;;;;;;7.50;1.50;;;;;;;8.62;100.00;99028.35;105797;1257;60476;-49
2023/04/22 05:06:17;;;;;;;3.20;1.80;;;;;;;8.70;100.00;99026.34;105155;1260;73061;-53
2023/04/22 05:08:48;;;;;;;1.60;1.30;;;;;;;8.78;100.00;99024.52;106367;1256;66289;-50
2023/04/22 05:11:16;;;;;;;3.30;1.30;;;;;;;8.86;100.00;99027.85;105383;1258;72613;-48
2023/04/22 05:13:46;;;;;;;1.70;1.40;;;;;;;8.94;100.00;99027.92;105146;1262;60546;-52
2023/04/22 05:16:18;;;;;;;3.30;1.40;;;;;;;9.04;100.00;99030.46;106627;1259;60496;-49
2023/04/22 05:18:46;;;;;;;2.60;2.00;;;;;;;9.14;100.00;99026.16;107199;1258;74110;-48
2023/04/22 05:21:15;;;;;;;5.60;1.70;;;;;;;9.24;100.00;99022.92;105487;1257;67430;-51
2023/04/22 05:23:44;;;;;;;1.90;1.20;;;;;;;9.32;100.00;99020.67;107747;1257;70600;-48
2023/04/22 05:26:13;;;;;;;1.70;1.40;;;;;;;9.41;100.00;99024.65;106688;1259;118514;-52
2023/04/22 05:29:45;;;;;;;3.00;1.70;;;;;;;9.57;100.00;99022.55;102110;1296;601199;-48
2023/04/22 05:32:14;;;;;;;1.80;1.60;;;;;;;9.65;100.00;99024.92;104436;1272;59950;-51
2023/04/22 05:34:42;;;;;;;4.90;2.20;;;;;;;9.75;100.00;99020.98;105778;1266;60683;-48
2023/04/22 05:37:10;;;;;;;4.30;2.10;;;;;;;9.86;100.00;99023.56;105380;1266;72443;-52
2023/04/22 05:39:40;;;;;;;4.30;1.70;;;;;;;9.96;100.00;99023.52;104749;1266;67949;-51
2023/04/22 05:42:09;;;;;;;3.80;1.90;;;;;;;10.02;100.00;99020.14;104356;1266;71670;-50
2023/04/22 05:44:38;;;;;;;4.10;1.90;;;;;;;10.06;100.00;99020.77;104421;1266;144442;-49
2023/04/22 05:47:06;;;;;;;4.50;1.60;;;;;;;10.13;100.00;99023.09;108428;1263;59615;-52
2023/04/22 05:49:34;;;;;;;2.50;1.70;;;;;;;10.21;100.00;99024.92;108419;1263;71755;-49
2023/04/22 05:52:15;;;;;;;2.60;1.80;;;;;;;10.32;100.00;99027.34;106917;1266;68157;-48
2023/04/22 05:54:52;;;;;;;3.00;1.70;;;;;;;10.45;100.00;99025.17;104175;1263;72135;-48
2023/04/22 05:57:20;;;;;;;4.90;1.30;;;;;;;10.56;100.00;99024.69;108216;1264;60765;-51
2023/04/22 05:59:48;;;;;;;7.50;1.60;;;;;;;10.67;100.00;99019.35;108215;1263;58901;-50
2023/04/22 06:02:16;;;;;;;1.80;1.50;;;;;;;10.80;100.00;99021.45;108282;1262;72658;-48
2023/04/22 06:04:46;;;;;;;4.30;1.20;;;;;;;10.92;100.00;99025.31;108523;1263;67357;-48
2023/04/22 06:07:14;;;;;;;6.70;1.70;;;;;;;11.04;100.00;99021.41;108358;1263;73172;-50
2023/04/22 06:09:42;;;;;;;5.40;2.30;;;;;;;11.13;100.00;99024.77;108507;1263;59034;-51
2023/04/22 06:12:10;;;;;;;2.20;1.90;;;;;;;11.23;100.00;99024.50;108477;1263;59009;-51
2023/04/22 06:14:39;;;;;;;4.00;2.10;;;;;;;11.32;100.00;99028.63;108470;1263;71348;-52
2023/04/22 06:17:08;;;;;;;4.30;1.90;;;;;;;11.39;100.00;99028.16;107300;1263;65130;-53
2023/04/22 06:19:36;;;;;;;5.00;2.40;;;;;;;11.48;100.00;99026.91;108422;1264;72950;-52
2023/04/22 06:22:05;;;;;;;3.90;2.00;;;;;;;11.56;100.00;99029.40;108391;1268;60500;-50
2023/04/22 06:24:33;;;;;;;2.50;1.40;;;;;;;11.64;100.00;99026.04;108386;1263;59553;-49
2023/04/22 06:27:01;;;;;;;2.30;1.40;;;;;;;11.66;100.00;99027.84;106211;1267;74413;-50
2023/04/22 06:29:29;;;;;;;2.30;2.10;;;;;;;11.67;100.00;99024.19;104627;1269;66573;-48
2023/04/22 06:31:58;;;;;;;5.60;1.80;;;;;;;11.69;100.00;99023.86;108377;1265;73868;-52
2023/04/22 06:34:26;;;;;;;1.70;1.50;;;;;;;11.74;100.00;99023.77;108726;1259;59836;-51
2023/04/22 06:36:54;;;;;;;2.70;2.20;;;;;;;11.79;100.00;99025.46;108853;1256;59154;-51
2023/04/22 06:39:22;;;;;;;3.90;1.70;;;;;;;11.85;100.00;99028.85;108593;1259;73242;-51
2023/04/22 06:42:05;;;;;;;7.30;2.30;;;;;;;11.92;100.00;99030.54;105144;1262;67541;-48
2023/04/22 06:44:47;;;;;;;8.40;2.60;;;;;;;12.00;100.00;99030.17;105261;1257;71126;-47
2023/04/22 06:47:24;;;;;;;4.20;2.20;;;;;;;12.09;100.00;99023.62;104906;1262;59684;-49
2023/04/22 06:49:58;;;;;;;6.50;1.40;;;;;;;12.18;100.00;99027.03;105767;1262;60482;-48
2023/04/22 06:52:35;;;;;;;4.60;1.90;;;;;;;12.26;100.00;99028.13;105065;1262;71053;-51
2023/04/22 06:55:03;;;;;;;4.80;1.90;;;;;;;12.32;100.00;99032.58;106376;1262;68123;-49
2023/04/22 06:57:31;;;;;;;4.70;2.40;;;;;;;12.38;100.00;99034.09;108423;1259;72572;-50
2023/04/22 07:00:01;;;;;;;8.10;1.90;;;;;;;12.47;100.00;99031.89;105495;1262;60052;-51
2023/04/22 07:02:31;;;;;;;4.70;2.20;;;;;;;12.54;100.00;99029.48;107365;1257;61518;-50
2023/04/22 07:05:00;;;;;;;9.00;1.80;;;;;;;12.55;100.00;99034.97;106049;1256;71686;-52
2023/04/22 07:07:29;;;;;;;2.40;1.90;;;;;;;12.58;100.00;99029.75;108653;1257;67516;-50
2023/04/22 07:09:57;;;;;;;3.70;2.40;;;;;;;12.63;100.00;99027.58;105577;1262;71917;-49
2023/04/22 07:12:29;;;;;;;6.50;1.90;;;;;;;12.72;100.00;99029.80;105095;1258;59704;-49
2023/04/22 07:14:56;;;;;;;4.50;2.30;;;;;;;12.82;100.00;99030.36;105211;1262;59703;-50
2023/04/22 07:17:24;;;;;;;5.20;2.00;;;;;;;12.91;100.00;99032.45;108679;1261;73298;-50
2023/04/22 07:19:52;;;;;;;4.00;1.70;;;;;;;12.98;100.00;99026.44;107205;1259;66405;-50
2023/04/22 07:22:20;;;;;;;2.90;2.60;;;;;;;13.02;100.00;99027.91;105191;1257;72193;-50
2023/04/22 07:24:48;;;;;;;3.30;1.60;;;;;;;13.07;100.00;99031.89;105217;1262;60507;-51
2023/04/22 07:27:16;;;;;;;5.50;1.70;;;;;;;13.11;100.00;99034.84;105412;1262;60708;-50
2023/04/22 07:29:44;;;;;;;2.60;2.40;;;;;;;13.15;100.00;99035.17;105354;1262;73270;-52
2023/04/22 07:32:12;;;;;;;2.30;1.80;;;;;;;13.20;100.00;99034.79;105334;1262;67512;-51
2023/04/22 07:34:40;;;;;;;5.90;2.60;;;;;;;13.25;100.00;99031.39;105353;1262;72093;-52
2023/04/22 07:37:08;;;;;;;4.30;2.20;;;;;;;13.33;100.00;99035.69;105719;1263;60509;-51
2023/04/22 07:39:37;;;;;;;2.90;2.40;;;;;;;13.43;100.00;99037.48;105872;1262;59634;-51
2023/04/22 07:42:06;;;;;;;2.40;1.90;;;;;;;13.52;100.00;99035.89;105524;1260;72318;-49
2023/04/22 07:44:34;;;;;;;4.60;2.70;;;;;;;13.61;100.00;99037.61;105810;1263;69450;-51
2023/04/22 07:47:07;;;;;;;4.10;1.90;;;;;;;13.69;100.00;99035.64;105420;1263;72311;-53
2023/04/22 07:49:35;;;;;;;3.00;2.40;;;;;;;13.75;100.00;99037.02;105890;1259;60792;-52
2023/04/22 07:52:03;;;;;;;3.80;2.00;;;;;;;13.82;100.00;99040.65;105456;1257;60415;-51
2023/04/22 07:54:31;;;;;;;4.90;2.10;;;;;;;13.88;100.00;99044.14;105376;1261;71150;-52
2023/04/22 07:57:00;;;;;;;2.50;1.70;;;;;;;13.93;100.00;99038.51;105350;1253;66096;-52
2023/04/22 07:59:28;;;;;;;3.00;1.80;;;;;;;13.98;100.00;99045.37;105599;1257;72937;-52
2023/04/22 08:01:56;;;;;;;3.30;2.00;;;;;;;14.02;100.00;99042.19;106017;1258;60635;-52
2023/04/22 08:04:24;;;;;;;4.00;2.00;;;;;;;14.07;100.00;99046.32;106126;1257;60473;-52
2023/04/22 08:06:53;;;;;;;3.80;2.20;;;;;;;14.11;100.00;99047.53;105590;1257;72657;-53
2023/04/22 08:09:22;;;;;;;6.70;2.00;;;;;;;14.13;100.00;99052.52;105579;1256;67847;-52
2023/04/22 08:11:51;;;;;;;3.80;2.00;;;;;;;14.15;100.00;99053.11;105372;1256;71199;-51
2023/04/22 08:14:19;;;;;;;5.50;2.00;;;;;;;14.15;100.00;99051.48;105768;1258;60276;-52
2023/04/22 08:16:47;;;;;;;2.50;1.90;;;;;;;14.16;100.00;99051.42;105773;1256;59620;-53
2023/04/22 08:19:14;;;;;;;7.30;2.60;;;;;;;14.16;100.00;99051.25;105450;1265;71614;-52
2023/04/22 08:21:43;;;;;;;4.60;2.30;;;;;;;14.16;100.00;99056.89;105471;1267;66154;-52
2023/04/22 08:24:11;;;;;;;7.50;1.80;;;;;;;14.18;100.00;99055.81;105492;1259;73917;-52
2023/04/22 08:26:39;;;;;;;4.90;2.60;;;;;;;14.22;100.00;99056.42;105470;1260;59733;-52
2023/04/22 08:29:07;;;;;;;5.80;2.20;;;;;;;14.22;100.00;99055.83;106744;1256;60493;-50
2023/04/22 08:31:35;;;;;;;3.80;2.00;;;;;;;14.22;100.00;99052.21;105884;1256;72081;-50
2023/04/22 08:34:04;;;;;;;5.00;1.90;;;;;;;14.25;100.00;99052.94;107459;1256;67457;-48
2023/04/22 08:36:31;;;;;;;5.90;2.00;;;;;;;14.27;100.00;99050.39;105623;1266;72872;-49
2023/04/22 08:38:59;;;;;;;4.00;2.10;;;;;;;14.33;100.00;99048.20;105542;1257;59566;-49
2023/04/22 08:41:27;;;;;;;6.30;2.40;;;;;;;14.38;100.00;99052.65;106096;1252;60657;-51
2023/04/22 08:43:55;;;;;;;4.80;2.50;;;;;;;14.41;100.00;99052.14;105535;1253;73555;-52
2023/04/22 08:46:23;;;;;;;2.70;1.80;;;;;;;14.42;100.00;99047.35;105604;1256;67385;-49
2023/04/22 08:48:51;;;;;;;3.30;1.70;;;;;;;14.47;100.00;99052.72;105563;1258;72417;-49
2023/04/22 08:51:19;;;;;;;3.60;2.10;;;;;;;14.54;100.00;99054.17;105892;1257;60575;-49
2023/04/22 08:53:47;;;;;;;2.90;1.70;;;;;;;14.61;100.00;99048.59;105483;1257;61780;-51
2023/04/22 08:56:15;;;;;;;5.60;1.90;;;;;;;14.66;100.00;99048.20;105559;1259;72367;-49
2023/04/22 08:58:43;;;;;;;6.40;2.40;;;;;;;14.72;100.00;99045.40;105558;1257;67032;-50
2023/04/22 09:01:11;;;;;;;2.80;1.70;;;;;;;14.78;100.00;99048.80;108942;1253;72891;-50
2023/04/22 09:03:41;;;;;;;3.10;1.40;;;;;;;14.84;100.00;99046.14;109137;1254;61326;-49
2023/04/22 09:06:10;;;;;;;1.50;1.20;;;;;;;14.91;100.00;99048.28;109123;1256;59631;-50
2023/04/22 09:08:39;;;;;;;2.10;1.70;;;;;;;15.00;100.00;99048.31;109094;1254;75263;-50
2023/04/22 09:11:06;;;;;;;2.20;1.20;;;;;;;15.10;100.00;99049.86;109221;1254;68652;-50
2023/04/22 09:13:36;;;;;;;3.30;1.50;;;;;;;15.21;100.00;99050.85;109162;1254;72903;-50
2023/04/22 09:16:04;;;;;;;7.70;2.10;;;;;;;15.29;100.00;99046.77;109063;1253;60089;-50
2023/04/22 09:18:42;;;;;;;2.60;2.40;;;;;;;15.36;100.00;99048.02;109174;1253;59102;-50
2023/04/22 09:21:10;;;;;;;4.50;1.60;;;;;;;15.41;100.00;99050.08;109265;1253;73894;-50
2023/04/22 09:23:51;;;;;;;4.00;1.50;;;;;;;15.43;100.00;99048.35;109252;1252;65729;-50
2023/04/22 09:26:20;;;;;;;5.80;1.80;;;;;;;15.44;100.00;99046.42;109279;1253;71572;-50
2023/04/22 09:28:49;;;;;;;2.70;1.60;;;;;;;15.49;100.00;99042.24;109209;1253;59890;-50
2023/04/22 09:31:17;;;;;;;2.80;1.70;;;;;;;15.58;100.00;99040.34;109137;1254;60547;-50
2023/04/22 09:33:47;;;;;;;5.40;2.20;;;;;;;15.64;100.00;99036.59;109222;1254;72113;-50
2023/04/22 09:36:21;;;;;;;7.60;2.10;;;;;;;15.69;100.00;99037.58;109201;1254;67131;-50
2023/04/22 09:38:56;;;;;;;2.50;1.30;;;;;;;15.77;100.00;99035.87;109249;1253;71977;-50
2023/04/22 09:41:31;;;;;;;5.80;1.70;;;;;;;15.84;100.00;99031.48;109103;1253;60430;-51
2023/04/22 09:43:59;;;;;;;8.20;2.20;;;;;;;15.90;100.00;99033.20;108387;1256;59006;-48
2023/04/22 09:46:29;;;;;;;5.80;1.50;;;;;;;15.95;100.00;99034.77;105600;1257;76621;-52
2023/04/22 09:48:57;;;;;;;2.70;1.30;;;;;;;16.02;100.00;99032.93;106175;1253;66434;-49
2023/04/22 09:51:29;;;;;;;1.80;1.60;;;;;;;16.08;100.00;99034.58;108192;1253;72168;-49
2023/04/22 09:53:58;;;;;;;3.00;1.10;;;;;;;16.12;100.00;99033.73;105086;1254;60409;-50
2023/04/22 09:56:42;;;;;;;3.20;1.30;;;;;;;16.12;100.00;99032.09;105150;1254;62012;-49
2023/04/22 09:59:10;;;;;;;9.40;2.00;;;;;;;16.11;100.00;99035.21;105566;1254;73505;-50
2023/04/22 10:01:39;;;;;;;4.20;2.00;;;;;;;16.09;100.00;99046.15;105510;1254;67320;-50
2023/04/22 10:04:09;;;;;;;2.80;1.30;;;;;;;16.04;100.00;99045.97;105163;1254;72065;-49
2023/04/22 10:06:37;;;;;;;5.30;1.40;;;;;;;15.97;100.00;99044.55;105632;1257;60437;-48
2023/04/22 10:09:06;;;;;;;2.80;1.50;;;;;;;15.92;100.00;99042.78;105256;1259;60610;-48
2023/04/22 10:11:36;;;;;;;4.60;1.50;;;;;;;15.90;100.00;99051.67;106423;1256;73609;-50
2023/04/22 10:14:04;;;;;;;2.00;1.20;;;;;;;15.91;100.00;99051.95;105442;1252;68238;-49
2023/04/22 10:16:33;;;;;;;1.30;1.20;;;;;;;15.93;100.00;99050.66;105579;1254;72724;-48
2023/04/22 10:19:02;;;;;;;3.10;1.00;;;;;;;15.97;100.00;99047.98;105878;1260;61104;-50
2023/04/22 10:21:30;;;;;;;3.40;2.00;;;;;;;16.02;100.00;99048.48;105639;1254;60446;-50
2023/04/22 10:23:58;;;;;;;3.00;1.30;;;;;;;16.07;100.00;99050.58;105430;1259;73122;-51
2023/04/22 10:26:40;;;;;;;2.20;1.70;;;;;;;16.14;100.00;99045.17;105567;1257;67105;-51
2023/04/22 10:29:11;;;;;;;3.60;1.50;;;;;;;16.22;100.00;99050.48;105394;1254;72664;-48
2023/04/22 10:31:40;;;;;;;2.70;1.20;;;;;;;16.34;100.00;99046.38;105535;1255;61004;-52
2023/04/22 10:34:10;;;;;;;3.60;1.50;;;;;;;16.43;100.00;99045.81;105584;1254;60508;-51
2023/04/22 10:36:56;;;;;;;7.60;2.10;;;;;;;16.47;100.00;99042.96;106088;1256;73474;-48
2023/04/22 10:39:25;;;;;;;2.00;1.60;;;;;;;16.47;100.00;99047.63;105698;1259;67019;-50
2023/04/22 10:42:02;;;;;;;3.30;1.70;;;;;;;16.47;100.00;99043.86;106025;1254;72807;-50
2023/04/22 10:44:44;;;;;;;4.00;1.70;;;;;;;16.46;100.00;99045.95;105703;1255;60482;-51
2023/04/22 10:47:23;;;;;;;2.70;1.50;;;;;;;16.42;100.00;99042.31;105578;1254;60630;-49
2023/04/22 10:50:10;;;;;;;4.30;1.50;;;;;;;16.40;100.00;99046.23;105583;1258;75056;-51
2023/04/22 10:52:40;;;;;;;1.90;1.60;;;;;;;16.44;100.00;99046.81;105835;1257;66824;-51
2023/04/22 10:55:08;;;;;;;2.10;1.30;;;;;;;16.51;100.00;99050.55;105894;1257;74181;-50
2023/04/22 10:57:40;;;;;;;4.00;1.20;;;;;;;16.56;100.00;99049.02;105612;1256;61311;-51
2023/04/22 11:00:28;;;;;;;3.70;1.10;;;;;;;16.53;100.00;99054.23;106230;1256;60880;-50
2023/04/22 11:03:16;;;;;;;3.50;1.30;;;;;;;16.44;100.00;99056.02;105693;1257;72913;-50
2023/04/22 11:05:44;;;;;;;5.10;1.10;;;;;;;16.39;100.00;99057.19;105719;1256;66994;-51
2023/04/22 11:08:15;;;;;;;2.40;1.50;;;;;;;16.33;100.00;99055.89;105700;1254;72951;-48
2023/04/22 11:10:44;;;;;;;2.90;1.50;;;;;;;16.27;100.00;99061.79;105513;1260;60623;-51
2023/04/22 11:13:18;;;;;;;3.70;1.70;;;;;;;16.26;100.00;99061.48;106061;1254;60835;-50
2023/04/22 11:15:52;;;;;;;2.30;1.60;;;;;;;16.27;100.00;99064.52;105742;1254;71725;-50
2023/04/22 11:18:25;;;;;;;3.20;1.70;;;;;;;16.35;100.00;99068.39;105723;1254;66429;-50
2023/04/22 11:20:53;;;;;;;3.40;1.10;;;;;;;16.43;100.00;99061.19;105495;1254;73863;-52
2023/04/22 11:23:23;;;;;;;3.50;1.40;;;;;;;16.49;100.00;99064.33;105535;1257;61677;-50
2023/04/22 11:26:10;;;;;;;3.20;1.00;;;;;;;16.50;100.00;99062.44;105555;1254;61615;-49
2023/04/22 11:28:45;;;;;;;2.40;1.00;;;;;;;16.51;100.00;99068.51;105980;1255;73673;-51
2023/04/22 11:31:13;;;;;;;5.30;1.10;;;;;;;16.57;100.00;99064.19;105892;1255;65607;-51
2023/04/22 11:33:42;;;;;;;2.50;1.30;;;;;;;16.62;100.00;99061.56;105552;1253;71831;-50